Time;durP1;ratioP1;P1;durP2;ratioP2;P2;SDS_P1;SDS_P2;PMS_P1;PMS_P2;Temp;Humidity;BMP_temperature;BMP_pressure;BME280_temperature;BME280_humidity;BME280_pressure;Samples;Min_cycle;Max_cycle;Signal;HPM_P1;HPM_P2
2022/07/28 00:01:40;;;;;;;5.45;2.90;;;;;;;17.74;91.86;98107.28;1849231;77;21231;-60
2022/07/28 00:04:07;;;;;;;3.45;2.72;;;;;;;17.67;91.80;98103.77;1849052;77;20937;-60
2022/07/28 00:06:35;;;;;;;5.65;2.72;;;;;;;17.57;91.92;98099.34;1849136;77;20912;-60
2022/07/28 00:09:02;;;;;;;5.05;2.17;;;;;;;17.49;92.28;98103.67;1849178;77;21473;-60
2022/07/28 00:11:29;;;;;;;4.62;2.25;;;;;;;17.47;92.47;98104.56;1849076;77;20896;-60
2022/07/28 00:13:57;;;;;;;6.62;2.77;;;;;;;17.41;92.69;98109.94;1849123;77;21352;-60
2022/07/28 00:16:24;;;;;;;4.05;2.60;;;;;;;17.39;92.78;98114.89;1849136;77;21426;-60
2022/07/28 00:18:50;;;;;;;5.50;2.70;;;;;;;17.37;92.74;98117.14;1849038;77;20896;-60
2022/07/28 00:21:17;;;;;;;5.10;2.40;;;;;;;17.34;92.81;98125.13;1849062;77;20888;-60
2022/07/28 00:23:44;;;;;;;5.60;2.40;;;;;;;17.29;92.90;98124.77;1849103;77;20920;-60
2022/07/28 00:26:11;;;;;;;6.75;2.75;;;;;;;17.26;92.90;98126.80;1849218;77;21109;-60
2022/07/28 00:28:38;;;;;;;4.70;2.50;;;;;;;17.19;92.95;98115.70;1849036;77;20856;-60
2022/07/28 00:31:06;;;;;;;4.95;2.42;;;;;;;17.15;93.15;98116.66;1849399;77;21398;-60
2022/07/28 00:33:33;;;;;;;5.75;2.55;;;;;;;17.12;93.23;98115.44;1849029;77;21501;-61
2022/07/28 00:35:59;;;;;;;4.40;2.60;;;;;;;17.09;93.30;98117.44;1849123;77;20825;-60
2022/07/28 00:38:26;;;;;;;8.08;2.60;;;;;;;17.05;93.38;98123.28;1849404;77;21395;-60
2022/07/28 00:41:11;;;;;;;5.78;2.58;;;;;;;17.01;93.49;98124.48;1849130;77;20966;-61
2022/07/28 00:43:46;;;;;;;3.87;2.62;;;;;;;17.00;93.56;98128.89;1849392;77;20856;-60
2022/07/28 00:46:13;;;;;;;;;;;;;;;16.98;93.62;98131.13;1851806;77;20873;-60
2022/07/28 00:48:44;;;;;;;6.37;2.90;;;;;;;16.95;93.74;98125.02;1849118;77;20095;-60
2022/07/28 00:51:10;;;;;;;4.00;2.67;;;;;;;16.93;93.90;98131.32;1826259;77;21175;-60
2022/07/28 00:53:38;;;;;;;7.53;2.55;;;;;;;16.90;93.88;98125.20;1849114;77;20868;-60
2022/07/28 00:56:05;;;;;;;4.55;2.50;;;;;;;16.85;93.92;98122.68;1849163;77;20931;-61
2022/07/28 01:09:47;;;;;;;5.00;2.60;;;;;;;16.60;94.22;98124.97;1842235;77;20881;-59
2022/07/28 01:12:19;;;;;;;5.28;2.55;;;;;;;16.53;94.22;98127.39;1849129;77;20951;-59
2022/07/28 01:14:56;;;;;;;5.17;2.67;;;;;;;16.46;94.36;98121.67;1849565;77;20903;-59
2022/07/28 01:17:40;;;;;;;3.98;2.42;;;;;;;16.39;94.42;98127.01;1849173;77;21335;-59
2022/07/28 01:20:25;;;;;;;3.92;2.55;;;;;;;16.29;94.60;98126.03;1841156;77;20909;-59
2022/07/28 01:23:09;;;;;;;5.17;2.50;;;;;;;16.16;95.12;98129.72;1832592;78;21523;-59
2022/07/28 01:26:00;;;;;;;6.22;2.45;;;;;;;16.05;95.81;98129.84;1832353;78;20901;-59
2022/07/28 01:29:02;;;;;;;4.83;2.87;;;;;;;16.02;96.55;98122.92;1832420;77;20908;-59
2022/07/28 01:31:41;;;;;;;3.22;2.33;;;;;;;16.08;96.78;98131.91;1832260;77;21074;-59
2022/07/28 01:34:16;;;;;;;7.03;2.60;;;;;;;16.12;96.58;98134.73;1832296;78;21396;-60
2022/07/28 01:36:57;;;;;;;4.60;2.58;;;;;;;16.12;96.37;98133.39;1831552;78;21392;-60
2022/07/28 01:39:27;;;;;;;7.40;2.70;;;;;;;16.08;96.14;98130.55;1832339;78;20884;-60
2022/07/28 01:41:54;;;;;;;8.45;2.80;;;;;;;16.06;95.75;98140.86;1832011;78;20920;-60
2022/07/28 01:44:23;;;;;;;4.85;2.50;;;;;;;16.02;95.52;98133.17;1832353;77;21214;-60
2022/07/28 01:46:50;;;;;;;4.72;2.50;;;;;;;15.93;95.54;98131.05;1832115;78;20857;-60
2022/07/28 01:49:19;;;;;;;8.58;2.40;;;;;;;15.91;95.91;98133.28;1810014;78;20901;-60
2022/07/28 01:51:45;;;;;;;6.90;2.55;;;;;;;15.95;96.05;98132.07;1832316;77;21429;-59
2022/07/28 01:54:12;;;;;;;5.35;2.50;;;;;;;15.93;95.76;98133.75;1832572;78;21502;-59
2022/07/28 01:56:39;;;;;;;8.08;2.70;;;;;;;15.91;95.64;98131.13;1832197;78;21147;-60
2022/07/28 01:59:08;;;;;;;5.53;2.60;;;;;;;15.88;95.35;98133.12;1832161;78;20901;-60
2022/07/28 02:01:36;;;;;;;5.87;2.27;;;;;;;15.85;95.11;98131.84;1832312;78;20885;-59
2022/07/28 02:04:04;;;;;;;4.83;2.33;;;;;;;15.83;94.93;98141.41;1832284;78;21431;-60
2022/07/28 02:06:32;;;;;;;4.37;2.50;;;;;;;15.79;94.96;98142.59;1832640;78;21023;-58
2022/07/28 02:08:59;;;;;;;5.45;2.75;;;;;;;15.78;94.98;98147.75;1832219;78;22012;-59
2022/07/28 02:11:39;;;;;;;8.65;2.85;;;;;;;15.75;94.92;98153.81;1832125;78;21447;-58
2022/07/28 02:14:15;;;;;;;7.65;2.20;;;;;;;15.66;95.09;98158.43;1832658;78;20909;-58
2022/07/28 02:16:46;;;;;;;5.12;2.70;;;;;;;15.59;95.29;98158.11;1832132;77;20964;-59
2022/07/28 02:19:12;;;;;;;5.05;2.45;;;;;;;15.53;95.88;98164.77;1835547;77;20923;-59
2022/07/28 02:21:41;;;;;;;6.05;2.60;;;;;;;15.54;96.09;98159.62;1843412;77;20883;-59
2022/07/28 02:24:08;;;;;;;6.70;2.55;;;;;;;15.54;96.00;98158.27;1846122;77;20833;-58
2022/07/28 02:26:37;;;;;;;5.85;2.90;;;;;;;15.55;95.82;98161.19;1849102;77;20856;-59
2022/07/28 02:29:05;;;;;;;4.47;2.30;;;;;;;15.55;95.60;98162.54;1848994;77;20928;-58
2022/07/28 02:31:37;;;;;;;6.17;2.40;;;;;;;15.53;95.44;98159.37;1849170;77;21006;-58
2022/07/28 02:34:03;;;;;;;8.20;2.72;;;;;;;15.52;95.36;98163.20;1848862;77;21223;-61
2022/07/28 02:36:43;;;;;;;4.83;2.25;;;;;;;15.47;95.15;98157.41;1849036;77;20912;-60
2022/07/28 02:39:23;;;;;;;6.45;2.70;;;;;;;15.45;95.01;98162.88;1848965;77;20829;-60
2022/07/28 02:41:54;;;;;;;8.80;3.33;;;;;;;15.45;94.90;98167.70;1849401;77;20892;-60
2022/07/28 02:44:24;;;;;;;5.00;2.47;;;;;;;15.42;94.79;98171.57;1849272;77;21396;-60
2022/07/28 02:46:52;;;;;;;7.30;2.30;;;;;;;15.41;94.62;98172.13;1849135;77;21079;-60
2022/07/28 02:49:30;;;;;;;9.00;2.45;;;;;;;15.40;94.46;98184.59;1825882;77;21395;-60
2022/07/28 02:51:58;;;;;;;7.47;2.50;;;;;;;15.33;94.31;98185.62;1849195;77;20919;-61
2022/07/28 02:54:24;;;;;;;8.53;2.90;;;;;;;15.28;94.41;98187.11;1848972;77;20996;-61
2022/07/28 02:56:51;;;;;;;5.08;2.62;;;;;;;15.23;94.50;98189.41;1826165;77;21343;-60
2022/07/28 02:59:18;;;;;;;6.50;2.27;;;;;;;15.20;94.63;98193.28;1849307;77;21348;-60
2022/07/28 03:01:45;;;;;;;4.20;2.40;;;;;;;15.19;94.64;98191.70;1848917;77;20904;-61
2022/07/28 03:04:14;;;;;;;7.20;2.75;;;;;;;15.17;94.56;98196.63;1848964;77;20908;-60
2022/07/28 03:06:41;;;;;;;5.62;2.70;;;;;;;15.16;94.58;98190.43;1849035;77;20895;-60
2022/07/28 03:09:08;;;;;;;4.95;2.98;;;;;;;15.13;94.63;98190.25;1849105;77;20840;-60
2022/07/28 03:11:35;;;;;;;3.55;2.40;;;;;;;15.13;94.79;98193.75;1849137;77;21112;-60
2022/07/28 03:14:02;;;;;;;4.00;2.40;;;;;;;15.15;94.67;98192.08;1849082;77;20959;-60
2022/07/28 03:16:28;;;;;;;6.03;2.45;;;;;;;15.13;94.61;98194.30;1849154;77;20825;-60
2022/07/28 03:18:56;;;;;;;8.15;2.65;;;;;;;15.12;94.74;98188.10;1849114;77;20884;-61
2022/07/28 03:21:23;;;;;;;7.65;3.10;;;;;;;15.08;94.75;98188.50;1849892;77;20911;-60
2022/07/28 03:23:50;;;;;;;4.95;2.77;;;;;;;15.08;94.83;98181.20;1850115;77;21394;-60
2022/07/28 03:26:26;;;;;;;3.95;2.10;;;;;;;15.11;94.87;98185.73;1849754;77;20841;-60
2022/07/28 03:28:53;;;;;;;6.03;2.80;;;;;;;15.12;94.82;98184.63;1846240;77;24608;-60
2022/07/28 03:31:19;;;;;;;4.83;2.52;;;;;;;15.13;94.77;98183.50;1832308;78;20853;-60
2022/07/28 03:33:47;;;;;;;7.65;2.72;;;;;;;15.12;94.70;98188.10;1832339;78;20980;-60
2022/07/28 03:36:17;;;;;;;7.83;2.90;;;;;;;15.13;94.69;98192.95;1832340;78;21110;-61
2022/07/28 03:38:47;;;;;;;11.63;2.92;;;;;;;15.14;94.57;98197.25;1832563;78;21418;-60
2022/07/28 03:41:13;;;;;;;6.87;2.55;;;;;;;15.13;94.40;98192.95;1832469;78;21482;-60
2022/07/28 03:43:40;;;;;;;4.97;2.40;;;;;;;15.14;94.49;98200.75;1832425;78;21458;-60
2022/07/28 03:46:07;;;;;;;5.50;2.60;;;;;;;15.19;94.52;98201.16;1832357;78;20873;-60
2022/07/28 03:48:35;;;;;;;9.35;2.83;;;;;;;15.22;94.66;98197.80;1832342;78;21189;-60
2022/07/28 03:51:02;;;;;;;5.03;2.60;;;;;;;15.26;94.75;98203.59;1832334;78;21007;-61
2022/07/28 03:53:28;;;;;;;6.00;2.47;;;;;;;15.31;94.74;98206.73;1832415;78;20904;-60
2022/07/28 03:55:55;;;;;;;5.30;2.47;;;;;;;15.34;94.68;98205.53;1832419;78;20940;-60
2022/07/28 03:58:25;;;;;;;7.45;2.70;;;;;;;15.37;94.70;98206.25;1832343;78;20932;-60
2022/07/28 04:00:51;;;;;;;4.40;2.35;;;;;;;15.40;94.72;98211.00;1832618;78;21793;-59
2022/07/28 04:03:18;;;;;;;6.00;2.95;;;;;;;15.44;94.76;98204.44;1832457;78;21423;-61
2022/07/28 04:05:45;;;;;;;7.08;2.72;;;;;;;15.50;94.96;98209.94;1832537;78;21477;-61
2022/07/28 04:08:13;;;;;;;11.12;3.58;;;;;;;15.55;95.04;98219.23;1832389;78;21435;-60
2022/07/28 04:10:40;;;;;;;8.08;2.90;;;;;;;15.61;95.03;98221.48;1832531;78;21482;-60
2022/07/28 04:13:08;;;;;;;5.67;2.45;;;;;;;15.67;95.13;98216.70;1832528;78;22002;-60
2022/07/28 04:15:34;;;;;;;9.80;2.60;;;;;;;15.73;95.21;98215.45;1832235;78;20956;-59
2022/07/28 04:18:00;;;;;;;13.10;2.90;;;;;;;15.80;95.34;98214.41;1832414;78;20916;-60
2022/07/28 04:20:28;;;;;;;11.60;3.12;;;;;;;15.87;95.42;98213.93;1838665;77;20892;-60
2022/07/28 04:22:54;;;;;;;6.75;2.55;;;;;;;15.96;95.46;98219.56;1843797;77;21462;-60
2022/07/28 04:25:23;;;;;;;18.65;3.12;;;;;;;16.04;95.42;98222.80;1843577;77;21236;-60
2022/07/28 04:27:50;;;;;;;12.13;2.75;;;;;;;16.16;95.28;98229.70;1846722;77;20833;-61
2022/07/28 04:30:20;;;;;;;19.12;3.33;;;;;;;16.24;95.18;98227.55;1849103;77;20944;-60
2022/07/28 04:32:48;;;;;;;20.85;3.58;;;;;;;16.31;95.07;98225.16;1849358;77;21438;-61
2022/07/28 04:35:15;;;;;;;16.80;3.65;;;;;;;16.38;94.81;98222.75;1849095;77;20927;-61
2022/07/28 04:37:43;;;;;;;17.42;3.95;;;;;;;16.43;94.64;98223.94;1849076;77;21057;-60
2022/07/28 04:40:11;;;;;;;10.85;2.62;;;;;;;16.52;94.35;98223.13;1849017;77;20860;-60
2022/07/28 04:42:39;;;;;;;9.35;2.75;;;;;;;16.61;94.01;98218.48;1849082;77;20903;-60
2022/07/28 04:45:07;;;;;;;12.03;2.62;;;;;;;16.69;93.66;98219.02;1849038;77;20955;-60
2022/07/28 04:47:34;;;;;;;10.43;2.40;;;;;;;16.80;93.45;98217.53;1849085;77;20884;-60
2022/07/28 04:50:00;;;;;;;9.58;2.40;;;;;;;16.88;92.83;98210.75;1849281;77;21234;-59
2022/07/28 04:52:27;;;;;;;6.47;1.92;;;;;;;16.97;91.95;98221.53;1849054;77;20883;-60
2022/07/28 04:54:54;;;;;;;4.95;2.00;;;;;;;17.06;91.23;98216.86;1849069;77;20868;-60
2022/07/28 04:57:22;;;;;;;4.60;1.55;;;;;;;17.15;90.57;98220.30;1849115;77;21010;-60
2022/07/28 04:59:49;;;;;;;12.82;2.30;;;;;;;17.27;89.74;98229.88;1849197;77;20983;-60
2022/07/28 05:02:15;;;;;;;6.03;1.90;;;;;;;17.37;88.86;98226.80;1849078;77;21137;-60
2022/07/28 05:04:43;;;;;;;8.65;2.47;;;;;;;17.47;88.13;98229.12;1849095;77;20955;-61
2022/07/28 05:07:11;;;;;;;7.00;1.77;;;;;;;17.56;87.43;98231.23;1849056;77;20903;-60
2022/07/28 05:09:38;;;;;;;4.80;1.52;;;;;;;17.63;86.84;98228.80;1849144;77;20904;-60
2022/07/28 05:12:06;;;;;;;7.20;1.60;;;;;;;17.71;85.92;98227.92;1849144;77;20915;-60
2022/07/28 05:14:33;;;;;;;6.85;1.90;;;;;;;17.78;85.40;98220.06;1849046;77;21190;-60
2022/07/28 05:17:01;;;;;;;5.65;1.52;;;;;;;17.89;84.75;98222.38;1849001;77;21379;-60
2022/07/28 05:19:28;;;;;;;3.30;1.30;;;;;;;17.98;83.85;98223.09;1848141;77;20857;-59
2022/07/28 05:21:55;;;;;;;3.17;1.35;;;;;;;18.08;83.07;98214.55;1827006;78;20912;-60
2022/07/28 05:24:22;;;;;;;2.17;1.22;;;;;;;18.17;82.72;98207.92;1827134;78;21011;-60
2022/07/28 05:26:48;;;;;;;6.15;1.47;;;;;;;18.24;82.20;98214.95;1827005;78;21107;-60
2022/07/28 05:29:15;;;;;;;3.72;1.30;;;;;;;18.30;81.90;98211.48;1827064;78;20948;-60
2022/07/28 05:31:41;;;;;;;2.85;1.30;;;;;;;18.38;81.46;98220.06;1827301;78;20992;-60
2022/07/28 05:34:08;;;;;;;2.30;1.12;;;;;;;18.46;81.29;98216.52;1826986;78;20924;-60
2022/07/28 05:36:35;;;;;;;2.98;1.30;;;;;;;18.54;81.18;98215.61;1827018;78;20964;-60
2022/07/28 05:39:01;;;;;;;7.62;1.60;;;;;;;18.62;81.17;98212.02;1825219;78;21114;-61
2022/07/28 05:41:28;;;;;;;3.75;1.40;;;;;;;18.73;80.91;98218.59;1797573;77;21068;-58
2022/07/28 05:43:57;;;;;;;2.90;1.60;;;;;;;18.80;80.59;98217.46;1799341;78;20967;-63
2022/07/28 05:46:23;;;;;;;2.80;1.40;;;;;;;18.88;80.09;98220.64;1813028;78;21028;-64
2022/07/28 05:48:53;;;;;;;5.62;1.55;;;;;;;18.96;79.62;98219.73;1809019;78;21441;-64
2022/07/28 05:51:19;;;;;;;2.90;1.47;;;;;;;19.03;78.73;98213.16;1806502;79;21092;-63
2022/07/28 05:53:46;;;;;;;5.00;1.70;;;;;;;19.10;78.05;98213.39;1810695;78;20926;-63
2022/07/28 05:56:20;;;;;;;4.12;1.85;;;;;;;19.20;77.34;98228.99;1814883;79;20899;-63
2022/07/28 05:58:47;;;;;;;4.65;1.50;;;;;;;19.26;76.88;98217.59;1814311;79;21060;-61
2022/07/28 06:01:14;;;;;;;2.62;1.52;;;;;;;19.34;76.40;98226.72;1813365;78;36798;-60
2022/07/28 06:03:42;;;;;;;3.10;1.57;;;;;;;19.39;76.16;98219.73;1807639;77;21087;-63
2022/07/28 06:06:09;;;;;;;4.80;2.00;;;;;;;19.45;76.01;98230.05;1804175;78;20956;-64
2022/07/28 06:08:36;;;;;;;3.72;1.67;;;;;;;19.48;76.46;98228.55;1827844;78;20948;-66
2022/07/28 06:11:08;;;;;;;2.92;1.37;;;;;;;19.55;76.66;98232.83;1817046;78;21096;-63
2022/07/28 06:13:37;;;;;;;2.75;1.82;;;;;;;19.63;77.06;98233.28;1816365;78;20967;-63
2022/07/28 06:16:05;;;;;;;3.17;1.60;;;;;;;19.71;77.17;98237.21;1829668;78;22659;-59
2022/07/28 06:18:33;;;;;;;3.45;2.50;;;;;;;19.77;77.30;98232.34;1828395;78;21056;-64
2022/07/28 06:20:59;;;;;;;4.20;2.08;;;;;;;19.85;77.38;98245.02;1803111;79;20887;-61
2022/07/28 06:23:28;;;;;;;4.05;2.20;;;;;;;19.93;77.14;98248.14;1808294;79;21391;-60
2022/07/28 06:25:54;;;;;;;6.55;2.30;;;;;;;20.01;77.21;98245.86;1807383;79;21038;-61
2022/07/28 06:28:20;;;;;;;5.87;2.12;;;;;;;20.09;77.36;98248.98;1796566;79;21514;-60
2022/07/28 06:30:51;;;;;;;3.83;2.42;;;;;;;20.17;77.20;98246.70;1805740;78;21137;-60
2022/07/28 06:33:21;;;;;;;2.50;2.05;;;;;;;20.26;77.70;98245.21;1761002;79;20964;-62
2022/07/28 06:35:47;;;;;;;5.87;2.35;;;;;;;20.38;77.85;98245.16;1803169;78;21058;-64
2022/07/28 06:38:14;;;;;;;2.87;2.02;;;;;;;20.48;77.88;98252.02;1802639;79;21083;-65
2022/07/28 06:40:42;;;;;;;2.95;2.25;;;;;;;20.59;77.39;98248.44;1758523;81;21135;-66
2022/07/28 06:43:09;;;;;;;3.35;2.30;;;;;;;20.71;76.96;98257.10;1759243;81;21464;-62
2022/07/28 06:45:35;;;;;;;7.72;2.60;;;;;;;20.78;76.40;98244.47;1783561;79;21309;-62
2022/07/28 06:48:03;;;;;;;3.65;2.12;;;;;;;20.85;75.73;98250.66;1808327;79;21011;-61
2022/07/28 06:50:30;;;;;;;3.70;2.22;;;;;;;20.89;75.46;98244.75;1806099;79;21087;-63
2022/07/28 06:52:57;;;;;;;2.37;2.17;;;;;;;20.96;75.63;98249.78;1796299;79;21082;-64
2022/07/28 06:55:24;;;;;;;6.53;2.60;;;;;;;21.04;75.57;98248.86;1790049;79;20924;-60
2022/07/28 06:57:51;;;;;;;3.15;2.20;;;;;;;21.15;75.34;98254.55;1788982;78;21396;-60
2022/07/28 07:00:17;;;;;;;6.58;2.60;;;;;;;21.24;75.02;98251.66;1788190;79;21436;-63
2022/07/28 07:02:44;;;;;;;5.33;2.40;;;;;;;21.33;74.48;98258.50;1775425;79;20975;-63
2022/07/28 07:05:11;;;;;;;5.55;2.60;;;;;;;21.43;74.14;98257.17;1807337;79;21166;-60
2022/07/28 07:07:42;;;;;;;5.22;2.40;;;;;;;21.54;73.26;98258.20;1805824;79;20872;-61
2022/07/28 07:10:08;;;;;;;3.60;1.82;;;;;;;21.65;73.17;98259.22;1805146;78;20919;-61
2022/07/28 07:12:35;;;;;;;3.60;2.40;;;;;;;21.76;72.06;98256.94;1799709;79;21028;-61
2022/07/28 07:15:04;;;;;;;2.50;2.30;;;;;;;21.92;71.71;98258.86;1805478;79;21489;-61
2022/07/28 07:17:32;;;;;;;4.08;2.30;;;;;;;22.07;70.49;98256.66;1802752;79;20987;-60
2022/07/28 07:20:00;;;;;;;2.50;1.82;;;;;;;22.20;69.89;98260.23;1807815;77;21005;-65
2022/07/28 07:22:28;;;;;;;2.85;1.90;;;;;;;22.37;67.61;98263.90;1848761;77;21081;-63
2022/07/28 07:24:54;;;;;;;4.00;2.20;;;;;;;22.50;66.71;98260.42;1848559;77;20984;-61
2022/07/28 07:27:21;;;;;;;6.97;1.70;;;;;;;22.64;67.00;98259.91;1826170;77;21073;-63
2022/07/28 07:29:48;;;;;;;3.05;1.80;;;;;;;22.79;64.33;98259.83;1821152;77;21712;-62
2022/07/28 07:32:14;;;;;;;5.42;2.10;;;;;;;22.80;63.18;98249.09;1837255;77;20986;-61
2022/07/28 07:34:42;;;;;;;4.50;1.90;;;;;;;22.85;64.26;98254.27;1828843;77;21474;-64
2022/07/28 07:37:12;;;;;;;4.37;1.95;;;;;;;22.99;64.27;98249.04;1850155;77;20978;-61
2022/07/28 07:39:38;;;;;;;4.15;1.98;;;;;;;23.19;63.41;98246.23;1849307;77;20876;-62
2022/07/28 07:42:05;;;;;;;3.87;1.90;;;;;;;23.40;62.74;98252.06;1848165;77;21160;-61
2022/07/28 07:44:32;;;;;;;2.83;1.80;;;;;;;23.59;62.81;98247.86;1834460;77;21009;-60
2022/07/28 07:46:59;;;;;;;3.05;1.90;;;;;;;23.78;62.07;98246.37;1819619;77;21102;-62
2022/07/28 07:49:25;;;;;;;2.17;1.47;;;;;;;23.93;62.31;98253.58;1827735;77;21561;-65
2022/07/28 07:51:54;;;;;;;5.03;1.80;;;;;;;24.02;61.50;98254.11;1847413;77;21027;-61
2022/07/28 07:54:24;;;;;;;2.75;1.70;;;;;;;23.99;58.66;98256.80;1848336;77;21424;-63
2022/07/28 07:56:52;;;;;;;4.42;1.80;;;;;;;23.89;59.63;98265.06;1848650;77;20932;-63
2022/07/28 07:59:19;;;;;;;2.45;1.60;;;;;;;23.91;59.95;98266.84;1847875;77;21479;-63
2022/07/28 08:01:52;;;;;;;2.45;1.72;;;;;;;23.94;58.37;98268.85;1848192;77;20955;-59
2022/07/28 08:04:16;;;;;;;2.20;1.50;;;;;;;23.96;58.05;98272.00;1839657;77;20983;-62
2022/07/28 08:06:43;;;;;;;2.98;1.30;;;;;;;24.02;58.75;98276.58;1825947;77;21036;-65
2022/07/28 08:09:09;;;;;;;2.15;1.45;;;;;;;24.04;58.88;98276.41;1849023;77;20852;-61
2022/07/28 08:11:37;;;;;;;2.83;1.70;;;;;;;24.04;58.27;98275.05;1822616;77;21405;-65
2022/07/28 08:14:04;;;;;;;2.65;1.37;;;;;;;24.05;56.40;98283.45;1809882;77;20955;-65
2022/07/28 08:16:31;;;;;;;4.37;1.90;;;;;;;24.09;56.11;98285.70;1822411;77;20980;-65
2022/07/28 08:18:57;;;;;;;2.58;1.55;;;;;;;24.05;55.09;98283.45;1841641;77;21078;-63
2022/07/28 08:21:25;;;;;;;3.00;1.22;;;;;;;24.06;55.25;98287.80;1821913;77;21043;-64
2022/07/28 08:23:59;;;;;;;3.70;1.60;;;;;;;24.18;56.28;98277.99;1820963;78;21486;-65
2022/07/28 08:26:28;;;;;;;2.35;1.40;;;;;;;24.27;56.71;98279.86;1822781;78;21042;-64
2022/07/28 08:28:54;;;;;;;5.28;1.42;;;;;;;24.38;56.93;98286.23;1818586;78;21030;-66
2022/07/28 08:31:21;;;;;;;3.87;1.60;;;;;;;24.48;56.90;98288.89;1808894;78;21922;-65
2022/07/28 08:33:49;;;;;;;3.67;1.30;;;;;;;24.58;57.43;98288.80;1822168;78;20920;-65
2022/07/28 08:36:15;;;;;;;3.17;1.50;;;;;;;24.58;56.82;98288.80;1834834;78;20956;-67
2022/07/28 08:38:43;;;;;;;3.42;1.85;;;;;;;24.49;55.49;98287.74;1819416;77;20879;-65
2022/07/28 08:41:31;;;;;;;3.83;1.80;;;;;;;24.32;54.67;98285.58;1811381;78;20919;-65
2022/07/28 08:43:58;;;;;;;5.62;1.60;;;;;;;24.22;54.69;98289.77;1829747;78;21230;-62
2022/07/28 08:46:26;;;;;;;6.25;1.80;;;;;;;24.27;56.49;98292.17;1805065;78;20948;-64
2022/07/28 08:48:52;;;;;;;4.50;1.60;;;;;;;24.33;56.86;98292.04;1829020;78;21110;-64
2022/07/28 08:51:19;;;;;;;4.67;1.50;;;;;;;24.31;56.91;98294.37;1838073;77;20873;-66
2022/07/28 08:53:45;;;;;;;2.72;1.57;;;;;;;24.23;56.03;98294.09;1834716;77;20978;-63
2022/07/28 08:56:14;;;;;;;3.05;1.42;;;;;;;24.05;55.18;98297.12;1796574;79;21114;-66
2022/07/28 08:58:40;;;;;;;2.47;1.47;;;;;;;23.80;56.48;98301.48;1797703;79;21486;-66
2022/07/28 09:01:10;;;;;;;5.95;1.72;;;;;;;23.62;57.23;98294.37;1763477;80;20924;-65
2022/07/28 09:03:37;;;;;;;4.58;1.80;;;;;;;23.56;58.79;98293.69;1794907;80;21656;-62
2022/07/28 09:06:06;;;;;;;5.12;1.67;;;;;;;23.63;57.98;98287.76;1765028;80;20933;-63
2022/07/28 09:08:34;;;;;;;4.72;1.75;;;;;;;23.76;57.97;98292.45;1833302;78;21147;-64
2022/07/28 09:11:02;;;;;;;4.37;1.50;;;;;;;23.94;55.87;98298.94;1837932;77;21474;-63
2022/07/28 09:13:29;;;;;;;2.62;1.50;;;;;;;24.09;57.06;98295.28;1837323;78;20999;-65
2022/07/28 09:15:57;;;;;;;2.83;1.60;;;;;;;24.29;57.30;98293.95;1838207;78;21343;-63
2022/07/28 09:18:24;;;;;;;3.35;1.25;;;;;;;24.53;56.20;98294.61;1838085;78;20975;-63
2022/07/28 09:20:52;;;;;;;2.08;1.30;;;;;;;24.70;54.95;98299.50;1838399;77;21791;-64
2022/07/28 09:23:19;;;;;;;2.33;1.22;;;;;;;24.80;52.86;98294.76;1848408;77;20868;-66
2022/07/28 09:25:46;;;;;;;1.57;1.20;;;;;;;24.82;51.85;98291.05;1849205;77;20943;-65
2022/07/28 09:28:16;;;;;;;1.75;1.22;;;;;;;24.86;52.33;98298.72;1826110;77;20924;-66
2022/07/28 09:30:45;;;;;;;2.60;1.40;;;;;;;24.93;52.40;98292.73;1849327;77;20923;-68
2022/07/28 09:33:26;;;;;;;2.25;1.30;;;;;;;25.06;52.87;98287.77;1837167;77;22048;-69
2022/07/28 09:35:55;;;;;;;3.05;1.22;;;;;;;25.16;51.50;98288.42;1832957;77;21001;-65
2022/07/28 09:38:26;;;;;;;2.17;1.20;;;;;;;25.30;50.80;98290.48;1819961;76;21092;-66
2022/07/28 09:40:58;;;;;;;1.80;1.00;;;;;;;25.27;49.71;98284.42;1764450;81;20954;-68
2022/07/28 09:43:39;;;;;;;1.40;1.00;;;;;;;25.27;49.71;98284.42;1777897;80;21065;-70
2022/07/28 09:46:16;;;;;;;1.37;1.10;;;;;;;25.30;48.19;98289.12;1780786;80;21242;-64
2022/07/28 09:48:58;;;;;;;4.12;1.30;;;;;;;25.38;48.27;98294.88;1781005;80;20966;-66
2022/07/28 09:51:32;;;;;;;4.20;1.45;;;;;;;25.50;49.27;98291.29;1781203;80;21449;-65
2022/07/28 09:54:13;;;;;;;6.83;1.35;;;;;;;25.49;49.18;98282.84;1759255;80;20900;-65
2022/07/28 09:56:44;;;;;;;2.87;1.27;;;;;;;25.42;49.18;98292.36;1777990;80;21015;-68
2022/07/28 09:59:11;;;;;;;3.50;1.22;;;;;;;25.23;49.87;98295.34;1776242;80;21119;-70
2022/07/28 10:01:56;;;;;;;3.77;1.15;;;;;;;25.08;50.18;98294.42;1776368;80;21514;-68
2022/07/28 10:04:42;;;;;;;2.25;1.32;;;;;;;24.96;49.74;98296.67;1773047;80;21078;-66
2022/07/28 10:07:12;;;;;;;3.00;1.30;;;;;;;24.85;50.66;98299.87;1817108;77;20971;-66
2022/07/28 10:09:41;;;;;;;2.20;1.40;;;;;;;24.74;51.19;98303.85;1811213;79;21568;-69
2022/07/28 10:12:21;;;;;;;1.87;1.22;;;;;;;24.68;52.02;98304.57;1812513;79;21253;-69
2022/07/28 10:14:50;;;;;;;1.82;1.00;;;;;;;24.63;51.42;98302.16;1812489;79;20966;-69
2022/07/28 10:17:31;;;;;;;1.40;1.20;;;;;;;24.54;51.56;98305.78;1824915;77;20964;-68
2022/07/28 10:20:04;;;;;;;2.83;1.05;;;;;;;24.51;52.65;98310.06;1828004;78;20900;-69
2022/07/28 10:22:36;;;;;;;3.20;1.32;;;;;;;24.46;52.30;98307.07;1829768;78;20956;-68
2022/07/28 10:25:14;;;;;;;2.00;1.32;;;;;;;24.41;52.57;98308.77;1786492;79;21494;-69
2022/07/28 10:27:41;;;;;;;1.75;1.20;;;;;;;24.40;52.43;98304.44;1783784;79;20881;-63
2022/07/28 10:30:10;;;;;;;9.93;1.60;;;;;;;24.35;51.24;98304.77;1769983;79;20975;-69
2022/07/28 10:32:42;;;;;;;3.45;1.40;;;;;;;24.30;51.20;98294.17;1764573;81;21015;-64
2022/07/28 10:35:14;;;;;;;4.37;1.65;;;;;;;24.26;51.05;98302.91;1763687;80;21037;-66
2022/07/28 10:38:06;;;;;;;2.65;1.30;;;;;;;24.29;51.53;98298.06;1763379;81;21126;-67
2022/07/28 10:40:35;;;;;;;1.70;1.10;;;;;;;24.51;53.35;98306.52;1762640;81;21069;-70
2022/07/28 10:43:02;;;;;;;1.75;1.30;;;;;;;24.62;50.61;98300.58;1761827;81;21482;-68
2022/07/28 10:45:30;;;;;;;2.92;1.32;;;;;;;24.66;49.46;98298.69;1763425;80;21067;-68
2022/07/28 10:47:57;;;;;;;3.55;1.02;;;;;;;24.77;48.39;98296.87;1763061;80;21565;-70
2022/07/28 10:50:24;;;;;;;2.60;1.20;;;;;;;24.89;48.36;98291.13;1785721;79;21067;-65
2022/07/28 10:52:51;;;;;;;3.05;1.02;;;;;;;25.05;48.14;98294.41;1802228;79;20864;-67
2022/07/28 10:55:40;;;;;;;3.90;1.00;;;;;;;25.18;47.81;98291.57;1799756;79;20841;-67
2022/07/28 10:58:47;;;;;;;6.15;1.00;;;;;;;25.32;47.01;98291.69;1799677;79;21011;-68
2022/07/28 11:01:35;;;;;;;2.05;1.00;;;;;;;25.43;47.78;98295.31;1807454;79;21627;-65
2022/07/28 11:04:01;;;;;;;2.17;1.10;;;;;;;25.46;46.78;98296.55;1788719;79;21099;-63
2022/07/28 11:06:38;;;;;;;2.15;1.00;;;;;;;25.36;47.11;98288.41;1795903;79;21043;-68
2022/07/28 11:09:22;;;;;;;2.83;1.00;;;;;;;25.25;46.20;98293.00;1785011;78;21474;-68
2022/07/28 11:11:56;;;;;;;3.77;1.20;;;;;;;25.18;47.05;98288.06;1770738;80;21583;-69
2022/07/28 11:14:34;;;;;;;4.22;1.25;;;;;;;25.26;48.03;98290.48;1794077;79;21510;-66
2022/07/28 11:17:06;;;;;;;2.42;1.20;;;;;;;25.28;47.60;98289.51;1801852;79;21221;-64
2022/07/28 11:19:50;;;;;;;2.27;1.10;;;;;;;25.28;49.03;98294.99;1802357;79;20952;-62
2022/07/28 11:22:21;;;;;;;4.33;1.25;;;;;;;25.28;49.03;98294.99;1820957;77;21001;-64
2022/07/28 11:25:00;;;;;;;1.67;1.00;;;;;;;25.32;49.06;98289.55;1847413;77;20943;-68
2022/07/28 11:27:50;;;;;;;1.87;1.30;;;;;;;25.35;49.68;98288.77;1838811;77;21483;-66
2022/07/28 11:30:34;;;;;;;1.87;1.00;;;;;;;25.43;49.59;98287.09;1848511;77;21317;-64
2022/07/28 11:33:06;;;;;;;1.42;0.93;;;;;;;25.68;49.13;98282.59;1840451;77;21043;-68
2022/07/28 11:35:44;;;;;;;1.47;0.90;;;;;;;26.01;49.24;98273.94;1848443;77;20918;-65
2022/07/28 11:38:12;;;;;;;3.87;1.07;;;;;;;26.38;47.90;98273.14;1847271;77;21420;-64
2022/07/28 11:40:44;;;;;;;3.15;1.10;;;;;;;26.76;47.43;98275.83;1848930;77;20955;-65
2022/07/28 11:43:29;;;;;;;1.10;1.00;;;;;;;27.05;47.35;98269.20;1847633;77;21077;-63
2022/07/28 11:46:08;;;;;;;2.25;1.00;;;;;;;27.32;45.98;98268.23;1847662;77;21636;-62
2022/07/28 11:48:35;;;;;;;2.20;1.00;;;;;;;27.65;46.19;98277.47;1848427;77;21078;-68
2022/07/28 11:51:11;;;;;;;2.45;1.00;;;;;;;27.86;43.74;98269.75;1825415;77;20999;-66
2022/07/28 11:53:47;;;;;;;1.98;0.90;;;;;;;27.75;43.11;98271.14;1832330;77;21438;-63
2022/07/28 11:56:31;;;;;;;2.60;0.88;;;;;;;27.50;42.92;98278.66;1849199;77;21116;-64
2022/07/28 11:59:04;;;;;;;1.27;1.00;;;;;;;27.49;42.13;98270.20;1830059;77;21533;-63